Terminal Aerodrome Forecast
Issued by NWS

Home | Current Version | Previous Version | Text Only | Print | Product List | Glossary On
Versions: 1 2 3 4 5 6 7 8 9 10 11 12 13 14 15 16 17
000
FTUS44 KLZK 270100 AAA
TAFHRO
TAF AMD
KHRO 270159Z 2702/2724 31010G20KT P6SM SCT025 BKN050
     FM270500 34008G15KT P6SM BKN025 OVC040
     FM271600 VRB05KT P6SM SCT030 BKN080=

USA.gov is the U.S. government's official web portal to all federal, state and local government web resources and services.